sensor_id;sensor_type;location;lat;lon;timestamp;pressure;altitude;pressure_sealevel;temperature;humidity
28588;BME280;15787;49.662;10.162;2023-04-24T00:01:11;98040.22;;;12.41;90.64
28588;BME280;15787;49.662;10.162;2023-04-24T00:03:44;98026.38;;;12.01;91.48
28588;BME280;15787;49.662;10.162;2023-04-24T00:06:19;98028.88;;;12.18;91.06
28588;BME280;15787;49.662;10.162;2023-04-24T00:08:52;98029.31;;;12.16;91.29
28588;BME280;15787;49.662;10.162;2023-04-24T00:11:25;98031.34;;;12.25;91.26
28588;BME280;15787;49.662;10.162;2023-04-24T00:13:58;98036.78;;;12.28;91.06
28588;BME280;15787;49.662;10.162;2023-04-24T00:16:31;98037.72;;;12.07;91.07
28588;BME280;15787;49.662;10.162;2023-04-24T00:19:04;98037.13;;;12.12;91.64
28588;BME280;15787;49.662;10.162;2023-04-24T00:21:39;98023.28;;;12.18;91.92
28588;BME280;15787;49.662;10.162;2023-04-24T00:24:12;98030.56;;;11.97;93.06
28588;BME280;15787;49.662;10.162;2023-04-24T00:26:45;98018.59;;;12.05;92.63
28588;BME280;15787;49.662;10.162;2023-04-24T00:29:18;98017.66;;;11.90;93.81
28588;BME280;15787;49.662;10.162;2023-04-24T00:31:50;98019.69;;;11.99;94.33
28588;BME280;15787;49.662;10.162;2023-04-24T00:34:23;98014.84;;;11.90;94.61
28588;BME280;15787;49.662;10.162;2023-04-24T00:36:57;98000.88;;;11.81;94.80
28588;BME280;15787;49.662;10.162;2023-04-24T00:39:30;98006.63;;;11.87;95.22
28588;BME280;15787;49.662;10.162;2023-04-24T00:42:03;98003.53;;;11.94;95.07
28588;BME280;15787;49.662;10.162;2023-04-24T00:44:38;98004.59;;;11.78;96.03
28588;BME280;15787;49.662;10.162;2023-04-24T00:47:12;98008.03;;;11.91;96.04
28588;BME280;15787;49.662;10.162;2023-04-24T00:49:46;97991.72;;;11.72;96.79
28588;BME280;15787;49.662;10.162;2023-04-24T00:52:20;97995.91;;;11.76;97.45
28588;BME280;15787;49.662;10.162;2023-04-24T00:54:55;97993.88;;;11.77;97.99
28588;BME280;15787;49.662;10.162;2023-04-24T00:57:28;97982.84;;;11.73;98.26
28588;BME280;15787;49.662;10.162;2023-04-24T01:00:02;97989.53;;;11.85;98.20
28588;BME280;15787;49.662;10.162;2023-04-24T01:02:36;97994.97;;;11.79;98.05
28588;BME280;15787;49.662;10.162;2023-04-24T01:05:13;97998.09;;;11.81;98.25
28588;BME280;15787;49.662;10.162;2023-04-24T01:07:48;97985.81;;;11.97;98.12
28588;BME280;15787;49.662;10.162;2023-04-24T01:10:22;97980.03;;;11.82;97.50
28588;BME280;15787;49.662;10.162;2023-04-24T01:12:56;97992.63;;;11.78;97.84
28588;BME280;15787;49.662;10.162;2023-04-24T01:15:30;97998.88;;;11.82;97.35
28588;BME280;15787;49.662;10.162;2023-04-24T01:18:03;98004.13;;;11.98;97.22
28588;BME280;15787;49.662;10.162;2023-04-24T01:20:39;98011.75;;;11.88;97.18
28588;BME280;15787;49.662;10.162;2023-04-24T01:23:14;98000.72;;;12.03;96.12
28588;BME280;15787;49.662;10.162;2023-04-24T01:25:48;98000.09;;;12.08;95.11
28588;BME280;15787;49.662;10.162;2023-04-24T01:28:22;98004.75;;;11.93;94.93
28588;BME280;15787;49.662;10.162;2023-04-24T01:30:55;98003.38;;;11.88;94.53
28588;BME280;15787;49.662;10.162;2023-04-24T01:33:28;97997.94;;;11.94;94.15
28588;BME280;15787;49.662;10.162;2023-04-24T01:36:01;98003.38;;;11.88;94.15
28588;BME280;15787;49.662;10.162;2023-04-24T01:38:35;98008.41;;;11.54;94.42
28588;BME280;15787;49.662;10.162;2023-04-24T01:41:08;98001.44;;;11.58;94.02
28588;BME280;15787;49.662;10.162;2023-04-24T01:43:42;98002.22;;;11.59;94.54
28588;BME280;15787;49.662;10.162;2023-04-24T01:46:15;98003.66;;;11.72;94.36
28588;BME280;15787;49.662;10.162;2023-04-24T01:48:48;97994.63;;;11.68;94.48
28588;BME280;15787;49.662;10.162;2023-04-24T01:51:25;97995.72;;;11.71;94.55
28588;BME280;15787;49.662;10.162;2023-04-24T01:53:59;97991.91;;;11.47;94.18
28588;BME280;15787;49.662;10.162;2023-04-24T01:56:33;97991.94;;;11.65;94.56
28588;BME280;15787;49.662;10.162;2023-04-24T01:59:07;97987.34;;;11.80;93.98
28588;BME280;15787;49.662;10.162;2023-04-24T02:01:41;97981.84;;;11.49;93.83
28588;BME280;15787;49.662;10.162;2023-04-24T02:04:14;97982.69;;;11.77;93.68
28588;BME280;15787;49.662;10.162;2023-04-24T02:06:47;97978.34;;;11.85;93.52
28588;BME280;15787;49.662;10.162;2023-04-24T02:09:22;97975.19;;;11.56;92.99
28588;BME280;15787;49.662;10.162;2023-04-24T02:11:55;97974.44;;;11.82;93.24
28588;BME280;15787;49.662;10.162;2023-04-24T02:14:28;97971.75;;;11.61;93.20
28588;BME280;15787;49.662;10.162;2023-04-24T02:17:01;97966.94;;;11.52;93.29
28588;BME280;15787;49.662;10.162;2023-04-24T02:19:34;97966.47;;;11.54;93.37
28588;BME280;15787;49.662;10.162;2023-04-24T02:22:07;97959.50;;;11.58;93.05
28588;BME280;15787;49.662;10.162;2023-04-24T02:24:41;97960.41;;;11.55;93.52
28588;BME280;15787;49.662;10.162;2023-04-24T02:27:14;97959.50;;;11.67;93.19
28588;BME280;15787;49.662;10.162;2023-04-24T02:29:47;97952.94;;;11.43;93.40
28588;BME280;15787;49.662;10.162;2023-04-24T02:32:20;97956.69;;;11.49;94.06
28588;BME280;15787;49.662;10.162;2023-04-24T02:34:53;97952.97;;;11.61;94.23
28588;BME280;15787;49.662;10.162;2023-04-24T02:37:26;97959.53;;;11.76;93.66
28588;BME280;15787;49.662;10.162;2023-04-24T02:40:00;97958.22;;;11.41;94.15
28588;BME280;15787;49.662;10.162;2023-04-24T02:42:33;97957.75;;;11.42;94.80
28588;BME280;15787;49.662;10.162;2023-04-24T02:45:07;97956.50;;;11.34;94.22
28588;BME280;15787;49.662;10.162;2023-04-24T02:47:40;97956.66;;;11.31;95.00
28588;BME280;15787;49.662;10.162;2023-04-24T02:50:13;97954.19;;;11.42;94.40
28588;BME280;15787;49.662;10.162;2023-04-24T02:52:45;97951.81;;;11.22;94.90
28588;BME280;15787;49.662;10.162;2023-04-24T02:55:20;97957.56;;;11.28;94.53
28588;BME280;15787;49.662;10.162;2023-04-24T02:57:53;97957.31;;;11.53;94.00
28588;BME280;15787;49.662;10.162;2023-04-24T03:00:26;97958.50;;;11.34;94.01
28588;BME280;15787;49.662;10.162;2023-04-24T03:02:59;97957.88;;;11.21;94.60
28588;BME280;15787;49.662;10.162;2023-04-24T03:05:32;97960.06;;;11.44;94.57
28588;BME280;15787;49.662;10.162;2023-04-24T03:08:05;97967.19;;;11.27;94.46
28588;BME280;15787;49.662;10.162;2023-04-24T03:10:39;97957.53;;;11.19;94.84
28588;BME280;15787;49.662;10.162;2023-04-24T03:13:12;97947.31;;;11.16;95.43
28588;BME280;15787;49.662;10.162;2023-04-24T03:15:45;97947.63;;;11.18;95.07
28588;BME280;15787;49.662;10.162;2023-04-24T03:18:18;97945.56;;;11.09;94.94
28588;BME280;15787;49.662;10.162;2023-04-24T03:20:54;97946.84;;;11.17;95.08
28588;BME280;15787;49.662;10.162;2023-04-24T03:23:27;97936.03;;;10.89;95.90
28588;BME280;15787;49.662;10.162;2023-04-24T03:26:03;97934.44;;;11.18;96.02
28588;BME280;15787;49.662;10.162;2023-04-24T03:28:37;97943.84;;;11.03;95.84
28588;BME280;15787;49.662;10.162;2023-04-24T03:31:09;97938.09;;;10.97;95.87
28588;BME280;15787;49.662;10.162;2023-04-24T03:33:42;97945.22;;;10.98;95.89
28588;BME280;15787;49.662;10.162;2023-04-24T03:36:15;97944.53;;;11.25;95.69
28588;BME280;15787;49.662;10.162;2023-04-24T03:38:49;97958.19;;;11.32;94.83
28588;BME280;15787;49.662;10.162;2023-04-24T03:41:35;97949.31;;;11.24;94.82
28588;BME280;15787;49.662;10.162;2023-04-24T03:44:14;97954.97;;;11.42;94.13
28588;BME280;15787;49.662;10.162;2023-04-24T03:46:47;97948.41;;;11.27;93.73
28588;BME280;15787;49.662;10.162;2023-04-24T03:49:21;97950.94;;;10.95;94.47
28588;BME280;15787;49.662;10.162;2023-04-24T03:51:54;97945.25;;;11.16;94.75
28588;BME280;15787;49.662;10.162;2023-04-24T03:54:30;97949.69;;;11.35;94.00
28588;BME280;15787;49.662;10.162;2023-04-24T03:57:05;97947.44;;;11.21;94.20
28588;BME280;15787;49.662;10.162;2023-04-24T03:59:42;97945.72;;;11.06;95.03
28588;BME280;15787;49.662;10.162;2023-04-24T04:02:21;97952.28;;;11.21;95.06
28588;BME280;15787;49.662;10.162;2023-04-24T04:04:55;97952.84;;;10.98;95.86
28588;BME280;15787;49.662;10.162;2023-04-24T04:07:28;97950.41;;;11.18;96.02
28588;BME280;15787;49.662;10.162;2023-04-24T04:10:01;97945.31;;;11.25;95.10
28588;BME280;15787;49.662;10.162;2023-04-24T04:12:36;97953.75;;;11.04;94.66
28588;BME280;15787;49.662;10.162;2023-04-24T04:15:09;97958.91;;;11.05;95.14
28588;BME280;15787;49.662;10.162;2023-04-24T04:17:42;97958.19;;;10.83;96.13
28588;BME280;15787;49.662;10.162;2023-04-24T04:20:17;97952.41;;;11.08;96.16
28588;BME280;15787;49.662;10.162;2023-04-24T04:22:50;97954.53;;;10.64;97.58
28588;BME280;15787;49.662;10.162;2023-04-24T04:25:37;97950.66;;;11.02;97.47
28588;BME280;15787;49.662;10.162;2023-04-24T04:28:11;97956.78;;;10.78;98.08
28588;BME280;15787;49.662;10.162;2023-04-24T04:30:44;97952.78;;;10.89;97.65
28588;BME280;15787;49.662;10.162;2023-04-24T04:33:19;97950.56;;;10.74;98.18
28588;BME280;15787;49.662;10.162;2023-04-24T04:35:52;97947.75;;;10.44;99.21
28588;BME280;15787;49.662;10.162;2023-04-24T04:38:30;97957.13;;;10.50;100.00
28588;BME280;15787;49.662;10.162;2023-04-24T04:41:11;97965.03;;;10.30;100.00
28588;BME280;15787;49.662;10.162;2023-04-24T04:43:46;97965.47;;;10.50;100.00
28588;BME280;15787;49.662;10.162;2023-04-24T04:46:20;97968.00;;;10.57;100.00
28588;BME280;15787;49.662;10.162;2023-04-24T04:49:03;97968.81;;;10.66;100.00
28588;BME280;15787;49.662;10.162;2023-04-24T04:51:36;97967.50;;;10.80;99.53
28588;BME280;15787;49.662;10.162;2023-04-24T04:54:13;97975.00;;;10.61;99.41
28588;BME280;15787;49.662;10.162;2023-04-24T04:56:46;97981.47;;;10.80;99.14
28588;BME280;15787;49.662;10.162;2023-04-24T04:59:21;97976.22;;;10.91;98.54
28588;BME280;15787;49.662;10.162;2023-04-24T05:02:00;97986.47;;;10.94;98.60
28588;BME280;15787;49.662;10.162;2023-04-24T05:04:34;97992.88;;;11.04;98.40
28588;BME280;15787;49.662;10.162;2023-04-24T05:07:07;98000.16;;;11.01;98.43
28588;BME280;15787;49.662;10.162;2023-04-24T05:09:43;98010.69;;;10.97;97.99
28588;BME280;15787;49.662;10.162;2023-04-24T05:12:17;98016.19;;;11.10;97.48
28588;BME280;15787;49.662;10.162;2023-04-24T05:14:56;98026.28;;;11.16;98.29
28588;BME280;15787;49.662;10.162;2023-04-24T05:17:30;98036.84;;;11.21;99.62
28588;BME280;15787;49.662;10.162;2023-04-24T05:20:05;98042.72;;;10.84;100.00
28588;BME280;15787;49.662;10.162;2023-04-24T05:22:38;98052.75;;;10.72;100.00
28588;BME280;15787;49.662;10.162;2023-04-24T05:25:11;98039.03;;;10.87;100.00
28588;BME280;15787;49.662;10.162;2023-04-24T05:27:51;98043.25;;;10.91;100.00
28588;BME280;15787;49.662;10.162;2023-04-24T05:30:26;98042.28;;;10.85;100.00
28588;BME280;15787;49.662;10.162;2023-04-24T05:32:59;98038.53;;;10.79;100.00
28588;BME280;15787;49.662;10.162;2023-04-24T05:35:34;98042.03;;;10.70;100.00
28588;BME280;15787;49.662;10.162;2023-04-24T05:38:07;98038.13;;;10.68;100.00
28588;BME280;15787;49.662;10.162;2023-04-24T05:40:41;98035.34;;;10.68;100.00
28588;BME280;15787;49.662;10.162;2023-04-24T05:43:14;98046.41;;;10.71;100.00
28588;BME280;15787;49.662;10.162;2023-04-24T05:45:48;98050.41;;;10.70;100.00
28588;BME280;15787;49.662;10.162;2023-04-24T05:48:22;98051.78;;;10.88;100.00
28588;BME280;15787;49.662;10.162;2023-04-24T05:50:55;98057.88;;;10.73;100.00
28588;BME280;15787;49.662;10.162;2023-04-24T05:53:29;98058.97;;;10.98;100.00
28588;BME280;15787;49.662;10.162;2023-04-24T05:56:02;98065.38;;;11.07;100.00
28588;BME280;15787;49.662;10.162;2023-04-24T05:58:36;98065.78;;;10.97;100.00
28588;BME280;15787;49.662;10.162;2023-04-24T06:01:11;98067.34;;;10.76;99.32
28588;BME280;15787;49.662;10.162;2023-04-24T06:03:44;98073.66;;;10.89;98.75
28588;BME280;15787;49.662;10.162;2023-04-24T06:06:17;98073.91;;;10.82;98.76
28588;BME280;15787;49.662;10.162;2023-04-24T06:08:50;98079.22;;;10.89;98.29
28588;BME280;15787;49.662;10.162;2023-04-24T06:11:23;98087.59;;;10.89;98.78
28588;BME280;15787;49.662;10.162;2023-04-24T06:13:57;98085.56;;;11.11;99.82
28588;BME280;15787;49.662;10.162;2023-04-24T06:17:03;98083.19;;;11.01;99.37
28588;BME280;15787;49.662;10.162;2023-04-24T06:19:40;98096.88;;;11.08;99.39
28588;BME280;15787;49.662;10.162;2023-04-24T06:22:14;98101.59;;;11.20;99.52
28588;BME280;15787;49.662;10.162;2023-04-24T06:24:46;98109.38;;;11.25;99.70
28588;BME280;15787;49.662;10.162;2023-04-24T06:27:19;98124.06;;;11.16;98.51
28588;BME280;15787;49.662;10.162;2023-04-24T06:29:53;98110.09;;;11.16;96.55
28588;BME280;15787;49.662;10.162;2023-04-24T06:32:28;98122.06;;;11.17;93.98
28588;BME280;15787;49.662;10.162;2023-04-24T06:35:04;98129.56;;;10.76;92.31
28588;BME280;15787;49.662;10.162;2023-04-24T06:37:39;98127.72;;;11.04;92.03
28588;BME280;15787;49.662;10.162;2023-04-24T06:40:12;98123.16;;;11.19;91.13
28588;BME280;15787;49.662;10.162;2023-04-24T06:42:45;98139.84;;;11.32;90.01
28588;BME280;15787;49.662;10.162;2023-04-24T06:45:18;98127.88;;;11.31;89.04
28588;BME280;15787;49.662;10.162;2023-04-24T06:47:53;98133.06;;;11.42;88.90
28588;BME280;15787;49.662;10.162;2023-04-24T06:50:25;98130.84;;;11.37;88.53
28588;BME280;15787;49.662;10.162;2023-04-24T06:52:58;98128.16;;;11.55;88.09
28588;BME280;15787;49.662;10.162;2023-04-24T06:55:31;98130.91;;;11.46;87.10
28588;BME280;15787;49.662;10.162;2023-04-24T06:58:04;98132.75;;;11.71;85.96
28588;BME280;15787;49.662;10.162;2023-04-24T07:00:38;98133.31;;;11.57;85.32
28588;BME280;15787;49.662;10.162;2023-04-24T07:03:12;98138.91;;;11.57;85.24
28588;BME280;15787;49.662;10.162;2023-04-24T07:05:45;98135.72;;;11.76;85.05
28588;BME280;15787;49.662;10.162;2023-04-24T07:08:19;98137.97;;;11.99;85.01
28588;BME280;15787;49.662;10.162;2023-04-24T07:10:53;98135.34;;;12.05;83.12
28588;BME280;15787;49.662;10.162;2023-04-24T07:13:27;98140.00;;;12.08;82.64
28588;BME280;15787;49.662;10.162;2023-04-24T07:16:00;98136.50;;;11.77;82.05
28588;BME280;15787;49.662;10.162;2023-04-24T07:18:34;98152.53;;;11.85;82.48
28588;BME280;15787;49.662;10.162;2023-04-24T07:21:08;98158.38;;;11.69;81.60
28588;BME280;15787;49.662;10.162;2023-04-24T07:23:41;98156.41;;;11.79;81.72
28588;BME280;15787;49.662;10.162;2023-04-24T07:26:14;98161.50;;;11.71;80.92
28588;BME280;15787;49.662;10.162;2023-04-24T07:28:48;98167.44;;;11.82;81.07
28588;BME280;15787;49.662;10.162;2023-04-24T07:31:21;98171.06;;;12.01;80.62
28588;BME280;15787;49.662;10.162;2023-04-24T07:33:55;98170.34;;;12.10;79.71
28588;BME280;15787;49.662;10.162;2023-04-24T07:36:29;98167.09;;;12.20;78.61
28588;BME280;15787;49.662;10.162;2023-04-24T07:39:04;98169.16;;;12.38;78.60
28588;BME280;15787;49.662;10.162;2023-04-24T07:41:37;98172.91;;;12.71;78.09
28588;BME280;15787;49.662;10.162;2023-04-24T07:44:10;98166.38;;;13.10;76.40
28588;BME280;15787;49.662;10.162;2023-04-24T07:46:43;98178.03;;;13.27;75.45
28588;BME280;15787;49.662;10.162;2023-04-24T07:49:17;98182.88;;;13.08;74.35
28588;BME280;15787;49.662;10.162;2023-04-24T07:51:50;98186.44;;;12.82;74.89
28588;BME280;15787;49.662;10.162;2023-04-24T07:54:23;98193.13;;;12.57;75.85
28588;BME280;15787;49.662;10.162;2023-04-24T07:56:56;98185.78;;;12.32;76.10
28588;BME280;15787;49.662;10.162;2023-04-24T07:59:29;98182.41;;;12.55;75.61
28588;BME280;15787;49.662;10.162;2023-04-24T08:02:02;98200.22;;;12.31;75.79
28588;BME280;15787;49.662;10.162;2023-04-24T08:04:36;98194.19;;;12.41;76.16
28588;BME280;15787;49.662;10.162;2023-04-24T08:07:09;98203.66;;;12.35;76.17
28588;BME280;15787;49.662;10.162;2023-04-24T08:09:44;98197.84;;;12.11;75.70
28588;BME280;15787;49.662;10.162;2023-04-24T08:12:17;98197.41;;;12.22;75.96
28588;BME280;15787;49.662;10.162;2023-04-24T08:14:50;98195.84;;;12.21;76.56
28588;BME280;15787;49.662;10.162;2023-04-24T08:17:23;98193.72;;;12.43;75.83
28588;BME280;15787;49.662;10.162;2023-04-24T08:19:58;98191.69;;;12.34;75.11
28588;BME280;15787;49.662;10.162;2023-04-24T08:22:33;98189.38;;;12.69;74.18
28588;BME280;15787;49.662;10.162;2023-04-24T08:25:07;98188.28;;;13.30;72.96
28588;BME280;15787;49.662;10.162;2023-04-24T08:27:40;98187.47;;;13.57;72.99
28588;BME280;15787;49.662;10.162;2023-04-24T08:30:13;98198.44;;;13.09;73.05
28588;BME280;15787;49.662;10.162;2023-04-24T08:32:46;98190.63;;;13.32;72.85
28588;BME280;15787;49.662;10.162;2023-04-24T08:35:20;98211.97;;;12.93;72.61
28588;BME280;15787;49.662;10.162;2023-04-24T08:37:54;98208.06;;;12.99;73.82
28588;BME280;15787;49.662;10.162;2023-04-24T08:40:28;98203.25;;;12.91;73.35
28588;BME280;15787;49.662;10.162;2023-04-24T08:43:03;98193.75;;;12.88;75.44
28588;BME280;15787;49.662;10.162;2023-04-24T08:45:36;98194.16;;;13.59;74.41
28588;BME280;15787;49.662;10.162;2023-04-24T08:48:10;98210.09;;;13.95;71.54
28588;BME280;15787;49.662;10.162;2023-04-24T08:50:59;98196.47;;;13.61;71.72
28588;BME280;15787;49.662;10.162;2023-04-24T08:53:33;98197.34;;;12.89;72.00
28588;BME280;15787;49.662;10.162;2023-04-24T08:56:06;98195.78;;;12.60;74.22
28588;BME280;15787;49.662;10.162;2023-04-24T08:58:40;98197.75;;;12.51;75.97
28588;BME280;15787;49.662;10.162;2023-04-24T09:01:13;98211.31;;;12.52;76.54
28588;BME280;15787;49.662;10.162;2023-04-24T09:03:48;98211.72;;;12.24;76.83
28588;BME280;15787;49.662;10.162;2023-04-24T09:06:24;98216.41;;;11.87;78.02
28588;BME280;15787;49.662;10.162;2023-04-24T09:08:59;98226.78;;;11.56;82.20
28588;BME280;15787;49.662;10.162;2023-04-24T09:11:32;98225.63;;;11.22;87.42
28588;BME280;15787;49.662;10.162;2023-04-24T09:14:06;98238.41;;;10.89;90.27
28588;BME280;15787;49.662;10.162;2023-04-24T09:16:39;98241.59;;;10.32;91.23
28588;BME280;15787;49.662;10.162;2023-04-24T09:19:12;98244.16;;;10.26;91.61
28588;BME280;15787;49.662;10.162;2023-04-24T09:21:47;98237.75;;;10.51;89.74
28588;BME280;15787;49.662;10.162;2023-04-24T09:24:21;98234.53;;;10.87;88.09
28588;BME280;15787;49.662;10.162;2023-04-24T09:26:57;98236.03;;;10.66;85.85
28588;BME280;15787;49.662;10.162;2023-04-24T09:29:33;98223.81;;;11.07;87.04
28588;BME280;15787;49.662;10.162;2023-04-24T09:32:18;98236.75;;;11.35;85.67
28588;BME280;15787;49.662;10.162;2023-04-24T09:35:07;98242.19;;;11.60;81.10
28588;BME280;15787;49.662;10.162;2023-04-24T09:37:43;98249.75;;;11.51;78.20
28588;BME280;15787;49.662;10.162;2023-04-24T09:40:17;98226.19;;;12.22;77.97
28588;BME280;15787;49.662;10.162;2023-04-24T09:42:54;98224.88;;;12.90;76.00
28588;BME280;15787;49.662;10.162;2023-04-24T09:45:28;98236.59;;;13.07;73.71
28588;BME280;15787;49.662;10.162;2023-04-24T09:48:01;98239.06;;;13.23;73.61
28588;BME280;15787;49.662;10.162;2023-04-24T09:50:37;98227.44;;;13.75;72.59
28588;BME280;15787;49.662;10.162;2023-04-24T09:53:12;98241.75;;;13.86;71.93
28588;BME280;15787;49.662;10.162;2023-04-24T09:55:45;98241.53;;;14.08;69.53
28588;BME280;15787;49.662;10.162;2023-04-24T09:58:24;98245.50;;;13.83;69.14
28588;BME280;15787;49.662;10.162;2023-04-24T10:00:58;98246.88;;;14.39;69.61
28588;BME280;15787;49.662;10.162;2023-04-24T10:03:32;98250.22;;;13.77;67.68
28588;BME280;15787;49.662;10.162;2023-04-24T10:06:05;98248.44;;;13.89;69.25
28588;BME280;15787;49.662;10.162;2023-04-24T10:08:42;98247.72;;;15.01;66.35
28588;BME280;15787;49.662;10.162;2023-04-24T10:11:16;98245.81;;;14.84;65.79
28588;BME280;15787;49.662;10.162;2023-04-24T10:13:49;98231.78;;;14.36;64.72
28588;BME280;15787;49.662;10.162;2023-04-24T10:16:23;98241.84;;;14.01;64.14
28588;BME280;15787;49.662;10.162;2023-04-24T10:18:59;98234.22;;;14.67;63.91
28588;BME280;15787;49.662;10.162;2023-04-24T10:21:32;98238.88;;;15.32;62.67
28588;BME280;15787;49.662;10.162;2023-04-24T10:24:08;98244.75;;;15.19;62.84
28588;BME280;15787;49.662;10.162;2023-04-24T10:26:42;98243.97;;;15.04;61.60
28588;BME280;15787;49.662;10.162;2023-04-24T10:29:17;98252.22;;;15.75;62.08
28588;BME280;15787;49.662;10.162;2023-04-24T10:31:50;98257.16;;;15.51;59.68
28588;BME280;15787;49.662;10.162;2023-04-24T10:34:23;98263.91;;;15.45;59.78
28588;BME280;15787;49.662;10.162;2023-04-24T10:36:57;98262.88;;;15.18;61.00
28588;BME280;15787;49.662;10.162;2023-04-24T10:39:31;98263.97;;;15.74;63.34
28588;BME280;15787;49.662;10.162;2023-04-24T10:42:14;98269.91;;;14.76;62.30
28588;BME280;15787;49.662;10.162;2023-04-24T10:44:47;98274.41;;;14.17;64.89
28588;BME280;15787;49.662;10.162;2023-04-24T10:47:20;98286.88;;;13.56;66.45
28588;BME280;15787;49.662;10.162;2023-04-24T10:49:53;98287.03;;;13.43;67.38
28588;BME280;15787;49.662;10.162;2023-04-24T10:52:43;98288.59;;;13.62;66.70
28588;BME280;15787;49.662;10.162;2023-04-24T10:55:42;98296.97;;;13.80;66.80
28588;BME280;15787;49.662;10.162;2023-04-24T10:58:16;98289.00;;;13.88;66.81
28588;BME280;15787;49.662;10.162;2023-04-24T11:00:56;98291.41;;;13.44;66.83
28588;BME280;15787;49.662;10.162;2023-04-24T11:03:31;98302.44;;;13.48;67.03
28588;BME280;15787;49.662;10.162;2023-04-24T11:06:06;98285.41;;;13.78;67.89
28588;BME280;15787;49.662;10.162;2023-04-24T11:08:43;98303.53;;;13.59;67.18
28588;BME280;15787;49.662;10.162;2023-04-24T11:11:18;98302.16;;;13.55;66.93
28588;BME280;15787;49.662;10.162;2023-04-24T11:14:04;98311.66;;;13.57;66.35
28588;BME280;15787;49.662;10.162;2023-04-24T11:16:45;98315.56;;;13.60;66.07
28588;BME280;15787;49.662;10.162;2023-04-24T11:19:26;98319.41;;;13.89;66.01
28588;BME280;15787;49.662;10.162;2023-04-24T11:22:02;98320.50;;;13.83;65.89
28588;BME280;15787;49.662;10.162;2023-04-24T11:24:39;98322.09;;;13.48;66.18
28588;BME280;15787;49.662;10.162;2023-04-24T11:27:22;98326.72;;;12.96;66.67
28588;BME280;15787;49.662;10.162;2023-04-24T11:30:00;98330.56;;;12.90;67.41
28588;BME280;15787;49.662;10.162;2023-04-24T11:32:37;98339.41;;;12.70;67.21
28588;BME280;15787;49.662;10.162;2023-04-24T11:35:15;98331.97;;;12.85;67.65
28588;BME280;15787;49.662;10.162;2023-04-24T11:37:49;98331.63;;;12.74;67.34
28588;BME280;15787;49.662;10.162;2023-04-24T11:40:25;98335.00;;;13.18;67.46
28588;BME280;15787;49.662;10.162;2023-04-24T11:43:00;98324.78;;;14.20;67.25
28588;BME280;15787;49.662;10.162;2023-04-24T11:45:33;98317.31;;;14.59;64.57
28588;BME280;15787;49.662;10.162;2023-04-24T11:48:06;98310.72;;;14.95;65.30
28588;BME280;15787;49.662;10.162;2023-04-24T11:50:39;98317.47;;;14.88;63.34
28588;BME280;15787;49.662;10.162;2023-04-24T11:53:12;98333.75;;;14.75;62.93
28588;BME280;15787;49.662;10.162;2023-04-24T11:55:46;98328.66;;;14.65;61.70
28588;BME280;15787;49.662;10.162;2023-04-24T11:58:21;98328.34;;;14.95;61.83
28588;BME280;15787;49.662;10.162;2023-04-24T12:00:57;98318.69;;;14.87;62.05
28588;BME280;15787;49.662;10.162;2023-04-24T12:03:32;98343.19;;;14.12;61.75
28588;BME280;15787;49.662;10.162;2023-04-24T12:06:06;98345.25;;;13.93;62.36
28588;BME280;15787;49.662;10.162;2023-04-24T12:08:40;98340.16;;;14.43;62.21
28588;BME280;15787;49.662;10.162;2023-04-24T12:11:15;98340.44;;;13.76;62.61
28588;BME280;15787;49.662;10.162;2023-04-24T12:13:50;98332.81;;;13.85;63.54
28588;BME280;15787;49.662;10.162;2023-04-24T12:16:24;98333.78;;;13.64;64.34
28588;BME280;15787;49.662;10.162;2023-04-24T12:18:58;98336.09;;;13.75;64.83
28588;BME280;15787;49.662;10.162;2023-04-24T12:21:32;98348.13;;;13.39;63.96
28588;BME280;15787;49.662;10.162;2023-04-24T12:24:08;98341.41;;;13.64;64.96
28588;BME280;15787;49.662;10.162;2023-04-24T12:26:43;98354.16;;;13.38;64.44
28588;BME280;15787;49.662;10.162;2023-04-24T12:29:20;98353.72;;;13.48;65.36
28588;BME280;15787;49.662;10.162;2023-04-24T12:31:54;98354.91;;;14.11;66.02
28588;BME280;15787;49.662;10.162;2023-04-24T12:34:26;98343.53;;;14.89;63.27
28588;BME280;15787;49.662;10.162;2023-04-24T12:37:09;98343.19;;;14.63;62.68
28588;BME280;15787;49.662;10.162;2023-04-24T12:39:58;98342.00;;;15.11;62.70
28588;BME280;15787;49.662;10.162;2023-04-24T12:42:32;98346.59;;;15.24;62.25
28588;BME280;15787;49.662;10.162;2023-04-24T12:45:07;98348.28;;;15.06;63.15
28588;BME280;15787;49.662;10.162;2023-04-24T12:47:41;98345.06;;;14.90;60.14
28588;BME280;15787;49.662;10.162;2023-04-24T12:50:15;98338.44;;;15.49;59.49
28588;BME280;15787;49.662;10.162;2023-04-24T12:52:48;98356.41;;;15.04;59.73
28588;BME280;15787;49.662;10.162;2023-04-24T12:55:21;98349.69;;;14.78;61.42
28588;BME280;15787;49.662;10.162;2023-04-24T12:57:54;98340.81;;;15.51;62.35
28588;BME280;15787;49.662;10.162;2023-04-24T13:00:29;98346.97;;;15.93;59.69
28588;BME280;15787;49.662;10.162;2023-04-24T13:03:02;98369.63;;;14.57;62.36
28588;BME280;15787;49.662;10.162;2023-04-24T13:05:36;98349.41;;;14.25;63.76
28588;BME280;15787;49.662;10.162;2023-04-24T13:08:08;98348.00;;;14.21;64.36
28588;BME280;15787;49.662;10.162;2023-04-24T13:10:41;98339.47;;;14.06;64.51
28588;BME280;15787;49.662;10.162;2023-04-24T13:13:14;98342.91;;;14.85;64.39
28588;BME280;15787;49.662;10.162;2023-04-24T13:15:48;98350.91;;;14.77;62.04
28588;BME280;15787;49.662;10.162;2023-04-24T13:18:21;98342.56;;;14.68;61.47
28588;BME280;15787;49.662;10.162;2023-04-24T13:20:55;98353.19;;;14.64;61.60
28588;BME280;15787;49.662;10.162;2023-04-24T13:23:28;98344.88;;;15.64;59.20
28588;BME280;15787;49.662;10.162;2023-04-24T13:26:01;98332.44;;;15.56;57.85
28588;BME280;15787;49.662;10.162;2023-04-24T13:28:34;98340.56;;;14.92;59.84